sensor_id;sensor_type;location;lat;lon;timestamp;pressure;altitude;pressure_sealevel;temperature;humidity
3598;BME280;1813;52.016;8.714;2022-12-07T00:01:51;-16261.94;;;-139.71;88.56
3598;BME280;1813;52.016;8.714;2022-12-07T00:04:27;-16261.94;;;-139.71;88.61
3598;BME280;1813;52.016;8.714;2022-12-07T00:07:01;-16261.94;;;-139.71;88.65
3598;BME280;1813;52.016;8.714;2022-12-07T00:09:35;-16261.94;;;-139.71;88.70
3598;BME280;1813;52.016;8.714;2022-12-07T00:12:09;-16261.94;;;-139.71;88.78
3598;BME280;1813;52.016;8.714;2022-12-07T00:14:43;-16261.94;;;-139.71;88.85
3598;BME280;1813;52.016;8.714;2022-12-07T00:17:17;-16261.94;;;-139.71;88.99
3598;BME280;1813;52.016;8.714;2022-12-07T00:19:53;-16261.94;;;-139.71;89.15
3598;BME280;1813;52.016;8.714;2022-12-07T00:22:27;-16261.94;;;-139.71;89.31
3598;BME280;1813;52.016;8.714;2022-12-07T00:25:01;-16261.94;;;-139.71;89.38
3598;BME280;1813;52.016;8.714;2022-12-07T00:27:34;-16261.94;;;-139.71;89.34
3598;BME280;1813;52.016;8.714;2022-12-07T00:30:09;-16261.94;;;-139.71;89.63
3598;BME280;1813;52.016;8.714;2022-12-07T00:32:43;-16261.94;;;-139.71;89.61
3598;BME280;1813;52.016;8.714;2022-12-07T00:35:19;-16261.94;;;-139.71;89.70
3598;BME280;1813;52.016;8.714;2022-12-07T00:37:53;-16261.94;;;-139.71;89.69
3598;BME280;1813;52.016;8.714;2022-12-07T00:40:27;-16261.94;;;-139.71;89.86
3598;BME280;1813;52.016;8.714;2022-12-07T00:43:00;-16261.94;;;-139.71;89.79
3598;BME280;1813;52.016;8.714;2022-12-07T00:45:34;-16261.94;;;-139.71;89.83
3598;BME280;1813;52.016;8.714;2022-12-07T00:48:08;-16261.94;;;-139.71;89.93
3598;BME280;1813;52.016;8.714;2022-12-07T00:50:44;-16261.94;;;-139.71;89.81
3598;BME280;1813;52.016;8.714;2022-12-07T00:53:18;-16261.94;;;-139.71;89.81
3598;BME280;1813;52.016;8.714;2022-12-07T00:55:52;-16261.94;;;-139.71;89.74
3598;BME280;1813;52.016;8.714;2022-12-07T00:58:26;-16261.94;;;-139.71;89.65
3598;BME280;1813;52.016;8.714;2022-12-07T01:01:00;-16261.94;;;-139.71;89.69
3598;BME280;1813;52.016;8.714;2022-12-07T01:03:35;-16261.94;;;-139.71;89.57
3598;BME280;1813;52.016;8.714;2022-12-07T01:06:14;-16261.94;;;-139.71;89.47
3598;BME280;1813;52.016;8.714;2022-12-07T01:08:49;-16261.94;;;-139.71;89.53
3598;BME280;1813;52.016;8.714;2022-12-07T01:11:24;-16261.94;;;-139.71;89.46
3598;BME280;1813;52.016;8.714;2022-12-07T01:13:59;-16261.94;;;-139.71;89.41
3598;BME280;1813;52.016;8.714;2022-12-07T01:16:34;-16261.94;;;-139.71;89.47
3598;BME280;1813;52.016;8.714;2022-12-07T01:19:07;-16261.94;;;-139.71;89.52
3598;BME280;1813;52.016;8.714;2022-12-07T01:21:44;-16261.94;;;-139.71;89.40
3598;BME280;1813;52.016;8.714;2022-12-07T01:24:18;-16261.94;;;-139.71;89.37
3598;BME280;1813;52.016;8.714;2022-12-07T01:26:51;-16261.94;;;-139.71;89.25
3598;BME280;1813;52.016;8.714;2022-12-07T01:29:25;-16261.94;;;-139.71;89.23
3598;BME280;1813;52.016;8.714;2022-12-07T01:31:59;-16261.94;;;-139.71;89.11
3598;BME280;1813;52.016;8.714;2022-12-07T01:34:33;-16261.94;;;-139.71;89.00
3598;BME280;1813;52.016;8.714;2022-12-07T01:37:09;-16261.94;;;-139.71;89.06
3598;BME280;1813;52.016;8.714;2022-12-07T01:39:43;-16261.94;;;-139.71;89.09
3598;BME280;1813;52.016;8.714;2022-12-07T01:42:17;-16261.94;;;-139.71;88.94
3598;BME280;1813;52.016;8.714;2022-12-07T01:47:56;-16261.94;;;-139.71;88.70
3598;BME280;1813;52.016;8.714;2022-12-07T01:50:31;-16261.94;;;-139.71;88.76
3598;BME280;1813;52.016;8.714;2022-12-07T01:53:08;-16261.94;;;-139.71;88.60
3598;BME280;1813;52.016;8.714;2022-12-07T01:55:47;-16261.94;;;-139.71;88.52
3598;BME280;1813;52.016;8.714;2022-12-07T01:58:21;-16261.94;;;-139.71;88.49
3598;BME280;1813;52.016;8.714;2022-12-07T02:00:55;-16261.94;;;-139.71;88.37
3598;BME280;1813;52.016;8.714;2022-12-07T02:03:33;-16261.94;;;-139.71;88.33
3598;BME280;1813;52.016;8.714;2022-12-07T02:06:11;-16261.94;;;-139.71;88.12
3598;BME280;1813;52.016;8.714;2022-12-07T02:08:48;-16261.94;;;-139.71;88.08
3598;BME280;1813;52.016;8.714;2022-12-07T02:11:22;-16261.94;;;-139.71;87.99
3598;BME280;1813;52.016;8.714;2022-12-07T02:13:56;-16261.94;;;-139.71;87.99
3598;BME280;1813;52.016;8.714;2022-12-07T02:16:36;-16261.94;;;-139.71;87.70
3598;BME280;1813;52.016;8.714;2022-12-07T02:22:30;-16261.94;;;-139.71;87.54
3598;BME280;1813;52.016;8.714;2022-12-07T02:25:19;-16261.94;;;-139.71;87.36
3598;BME280;1813;52.016;8.714;2022-12-07T02:28:01;-16261.94;;;-139.71;87.24
3598;BME280;1813;52.016;8.714;2022-12-07T02:30:44;-16261.94;;;-139.71;87.17
3598;BME280;1813;52.016;8.714;2022-12-07T02:33:29;-16261.94;;;-139.71;87.07
3598;BME280;1813;52.016;8.714;2022-12-07T02:36:08;-16261.94;;;-139.71;87.17
3598;BME280;1813;52.016;8.714;2022-12-07T02:38:48;-16261.94;;;-139.71;86.92
3598;BME280;1813;52.016;8.714;2022-12-07T02:41:27;-16261.94;;;-139.71;86.89
3598;BME280;1813;52.016;8.714;2022-12-07T02:44:06;-16261.94;;;-139.71;86.71
3598;BME280;1813;52.016;8.714;2022-12-07T02:46:51;-16261.94;;;-139.71;86.54
3598;BME280;1813;52.016;8.714;2022-12-07T02:49:27;-16261.94;;;-139.71;86.54
3598;BME280;1813;52.016;8.714;2022-12-07T02:52:02;-16261.94;;;-139.71;86.63
3598;BME280;1813;52.016;8.714;2022-12-07T02:54:36;-16261.94;;;-139.71;86.75
3598;BME280;1813;52.016;8.714;2022-12-07T02:57:22;-16261.94;;;-139.71;86.94
3598;BME280;1813;52.016;8.714;2022-12-07T03:00:03;-16261.94;;;-139.71;87.16
3598;BME280;1813;52.016;8.714;2022-12-07T03:02:48;-16261.94;;;-139.71;87.13
3598;BME280;1813;52.016;8.714;2022-12-07T03:05:48;-16261.94;;;-139.71;87.27
3598;BME280;1813;52.016;8.714;2022-12-07T03:08:31;-16261.94;;;-139.71;87.12
3598;BME280;1813;52.016;8.714;2022-12-07T03:11:13;-16261.94;;;-139.71;87.24
3598;BME280;1813;52.016;8.714;2022-12-07T03:13:50;-16261.94;;;-139.71;87.02
3598;BME280;1813;52.016;8.714;2022-12-07T03:16:30;-16261.94;;;-139.71;87.02
3598;BME280;1813;52.016;8.714;2022-12-07T03:19:11;-16261.94;;;-139.71;86.77
3598;BME280;1813;52.016;8.714;2022-12-07T03:21:49;-16261.94;;;-139.71;86.71
3598;BME280;1813;52.016;8.714;2022-12-07T03:24:28;-16261.94;;;-139.71;86.56
3598;BME280;1813;52.016;8.714;2022-12-07T03:27:05;-16261.94;;;-139.71;86.62
3598;BME280;1813;52.016;8.714;2022-12-07T03:29:43;-16261.94;;;-139.71;86.64
3598;BME280;1813;52.016;8.714;2022-12-07T03:32:23;-16261.94;;;-139.71;86.80
3598;BME280;1813;52.016;8.714;2022-12-07T03:35:07;-16261.94;;;-139.71;86.65
3598;BME280;1813;52.016;8.714;2022-12-07T03:37:49;-16261.94;;;-139.71;86.63
3598;BME280;1813;52.016;8.714;2022-12-07T03:40:29;-16261.94;;;-139.71;86.51
3598;BME280;1813;52.016;8.714;2022-12-07T03:43:05;-16261.94;;;-139.71;86.64
3598;BME280;1813;52.016;8.714;2022-12-07T03:45:41;-16261.94;;;-139.71;86.62
3598;BME280;1813;52.016;8.714;2022-12-07T03:48:24;-16261.94;;;-139.71;86.74
3598;BME280;1813;52.016;8.714;2022-12-07T03:51:21;-16261.94;;;-139.71;86.81
3598;BME280;1813;52.016;8.714;2022-12-07T03:54:02;-16261.94;;;-139.71;86.71
3598;BME280;1813;52.016;8.714;2022-12-07T03:56:41;-16261.94;;;-139.71;86.80
3598;BME280;1813;52.016;8.714;2022-12-07T03:59:17;-16261.94;;;-139.71;86.81
3598;BME280;1813;52.016;8.714;2022-12-07T04:01:53;-16261.94;;;-139.71;86.81
3598;BME280;1813;52.016;8.714;2022-12-07T04:04:28;-16261.94;;;-139.71;86.68
3598;BME280;1813;52.016;8.714;2022-12-07T04:07:04;-16261.94;;;-139.71;86.71
3598;BME280;1813;52.016;8.714;2022-12-07T04:09:38;-16261.94;;;-139.71;86.71
3598;BME280;1813;52.016;8.714;2022-12-07T04:12:12;-16261.94;;;-139.71;86.77
3598;BME280;1813;52.016;8.714;2022-12-07T04:14:46;-16261.94;;;-139.71;86.78
3598;BME280;1813;52.016;8.714;2022-12-07T04:17:19;-16261.94;;;-139.71;86.95
3598;BME280;1813;52.016;8.714;2022-12-07T04:19:53;-16261.94;;;-139.71;86.94
3598;BME280;1813;52.016;8.714;2022-12-07T04:22:30;-16261.94;;;-139.71;86.88
3598;BME280;1813;52.016;8.714;2022-12-07T04:25:04;-16261.94;;;-139.71;87.02
3598;BME280;1813;52.016;8.714;2022-12-07T04:27:38;-16261.94;;;-139.71;87.14
3598;BME280;1813;52.016;8.714;2022-12-07T04:30:12;-16261.94;;;-139.71;87.02
3598;BME280;1813;52.016;8.714;2022-12-07T04:32:46;-16261.94;;;-139.71;87.11
3598;BME280;1813;52.016;8.714;2022-12-07T04:35:20;-16261.94;;;-139.71;87.24
3598;BME280;1813;52.016;8.714;2022-12-07T04:37:56;-16261.94;;;-139.71;87.21
3598;BME280;1813;52.016;8.714;2022-12-07T04:40:30;-16261.94;;;-139.71;87.35
3598;BME280;1813;52.016;8.714;2022-12-07T04:43:04;-16261.94;;;-139.71;87.23
3598;BME280;1813;52.016;8.714;2022-12-07T04:45:38;-16261.94;;;-139.71;87.26
3598;BME280;1813;52.016;8.714;2022-12-07T04:48:11;-16261.94;;;-139.71;87.32
3598;BME280;1813;52.016;8.714;2022-12-07T04:50:47;-16261.94;;;-139.71;87.27
3598;BME280;1813;52.016;8.714;2022-12-07T04:53:24;-16261.94;;;-139.71;87.21
3598;BME280;1813;52.016;8.714;2022-12-07T04:55:58;-16261.94;;;-139.71;87.07
3598;BME280;1813;52.016;8.714;2022-12-07T04:58:32;-16261.94;;;-139.71;87.18
3598;BME280;1813;52.016;8.714;2022-12-07T05:01:06;-16261.94;;;-139.71;86.98
3598;BME280;1813;52.016;8.714;2022-12-07T05:03:40;-16261.94;;;-139.71;86.80
3598;BME280;1813;52.016;8.714;2022-12-07T05:06:14;-16261.94;;;-139.71;86.55
3598;BME280;1813;52.016;8.714;2022-12-07T05:08:51;-16261.94;;;-139.71;86.63
3598;BME280;1813;52.016;8.714;2022-12-07T05:11:24;-16261.94;;;-139.71;86.64
3598;BME280;1813;52.016;8.714;2022-12-07T05:14:13;-16261.94;;;-139.71;86.60
3598;BME280;1813;52.016;8.714;2022-12-07T05:16:49;-16261.94;;;-139.71;86.60
3598;BME280;1813;52.016;8.714;2022-12-07T05:19:24;-16261.94;;;-139.71;86.74
3598;BME280;1813;52.016;8.714;2022-12-07T05:21:57;-16261.94;;;-139.71;86.72
3598;BME280;1813;52.016;8.714;2022-12-07T05:24:34;-16261.94;;;-139.71;86.56
3598;BME280;1813;52.016;8.714;2022-12-07T05:27:08;-16261.94;;;-139.71;86.64
3598;BME280;1813;52.016;8.714;2022-12-07T05:29:41;-16261.94;;;-139.71;86.69
3598;BME280;1813;52.016;8.714;2022-12-07T05:32:15;-16261.94;;;-139.71;86.52
3598;BME280;1813;52.016;8.714;2022-12-07T05:34:49;-16261.94;;;-139.71;86.64
3598;BME280;1813;52.016;8.714;2022-12-07T05:37:25;-16261.94;;;-139.71;86.42
3598;BME280;1813;52.016;8.714;2022-12-07T05:40:02;-16261.94;;;-139.71;86.39
3598;BME280;1813;52.016;8.714;2022-12-07T05:42:36;-16261.94;;;-139.71;86.39
3598;BME280;1813;52.016;8.714;2022-12-07T05:45:08;-16261.94;;;-139.71;86.38
3598;BME280;1813;52.016;8.714;2022-12-07T05:47:42;-16261.94;;;-139.71;86.33
3598;BME280;1813;52.016;8.714;2022-12-07T05:50:16;-16261.94;;;-139.71;86.37
3598;BME280;1813;52.016;8.714;2022-12-07T05:53:04;-16261.94;;;-139.71;86.18
3598;BME280;1813;52.016;8.714;2022-12-07T05:55:40;-16261.94;;;-139.71;86.05
3598;BME280;1813;52.016;8.714;2022-12-07T05:58:14;-16261.94;;;-139.71;86.02
3598;BME280;1813;52.016;8.714;2022-12-07T06:01:00;-16261.94;;;-139.71;85.95
3598;BME280;1813;52.016;8.714;2022-12-07T06:03:34;-16261.94;;;-139.71;85.72
3598;BME280;1813;52.016;8.714;2022-12-07T06:06:08;-16261.94;;;-139.71;85.87
3598;BME280;1813;52.016;8.714;2022-12-07T06:08:41;-16261.94;;;-139.71;85.88
3598;BME280;1813;52.016;8.714;2022-12-07T06:11:18;-16261.94;;;-139.71;85.81
3598;BME280;1813;52.016;8.714;2022-12-07T06:14:04;-16261.94;;;-139.71;85.49
3598;BME280;1813;52.016;8.714;2022-12-07T06:16:38;-16261.94;;;-139.71;85.44
3598;BME280;1813;52.016;8.714;2022-12-07T06:19:11;-16261.94;;;-139.71;85.44
3598;BME280;1813;52.016;8.714;2022-12-07T06:21:45;-16261.94;;;-139.71;85.38
3598;BME280;1813;52.016;8.714;2022-12-07T06:24:19;-16261.94;;;-139.71;85.36
3598;BME280;1813;52.016;8.714;2022-12-07T06:26:56;-16261.94;;;-139.71;85.21
3598;BME280;1813;52.016;8.714;2022-12-07T06:29:30;-16261.94;;;-139.71;85.05
3598;BME280;1813;52.016;8.714;2022-12-07T06:32:04;-16261.94;;;-139.71;84.90
3598;BME280;1813;52.016;8.714;2022-12-07T06:34:38;-16261.94;;;-139.71;84.81
3598;BME280;1813;52.016;8.714;2022-12-07T06:37:12;-16261.94;;;-139.71;84.56
3598;BME280;1813;52.016;8.714;2022-12-07T06:39:46;-16261.94;;;-139.71;84.56
3598;BME280;1813;52.016;8.714;2022-12-07T06:42:22;-16261.94;;;-139.71;84.59
3598;BME280;1813;52.016;8.714;2022-12-07T06:44:56;-16261.94;;;-139.71;84.84
3598;BME280;1813;52.016;8.714;2022-12-07T06:47:29;-16261.94;;;-139.71;84.89
3598;BME280;1813;52.016;8.714;2022-12-07T06:50:04;-16261.94;;;-139.71;85.01
3598;BME280;1813;52.016;8.714;2022-12-07T06:52:38;-16261.94;;;-139.71;85.15
3598;BME280;1813;52.016;8.714;2022-12-07T06:55:12;-16261.94;;;-139.71;85.24
3598;BME280;1813;52.016;8.714;2022-12-07T06:57:48;-16261.94;;;-139.71;85.26
3598;BME280;1813;52.016;8.714;2022-12-07T07:00:22;-16261.94;;;-139.71;85.28
3598;BME280;1813;52.016;8.714;2022-12-07T07:02:56;-16261.94;;;-139.71;85.24
3598;BME280;1813;52.016;8.714;2022-12-07T07:05:30;-16261.94;;;-139.71;85.27
3598;BME280;1813;52.016;8.714;2022-12-07T07:08:04;-16261.94;;;-139.71;85.27
3598;BME280;1813;52.016;8.714;2022-12-07T07:10:38;-16261.94;;;-139.71;85.39
3598;BME280;1813;52.016;8.714;2022-12-07T07:13:15;-16261.94;;;-139.71;85.51
3598;BME280;1813;52.016;8.714;2022-12-07T07:15:48;-16261.94;;;-139.71;85.52
3598;BME280;1813;52.016;8.714;2022-12-07T07:18:22;-16261.94;;;-139.71;85.32
3598;BME280;1813;52.016;8.714;2022-12-07T07:20:57;-16261.94;;;-139.71;85.29
3598;BME280;1813;52.016;8.714;2022-12-07T07:23:31;-16261.94;;;-139.71;85.24
3598;BME280;1813;52.016;8.714;2022-12-07T07:26:05;-16261.94;;;-139.71;85.32
3598;BME280;1813;52.016;8.714;2022-12-07T07:28:41;-16261.94;;;-139.71;85.33
3598;BME280;1813;52.016;8.714;2022-12-07T07:31:15;-16261.94;;;-139.71;85.43
3598;BME280;1813;52.016;8.714;2022-12-07T07:33:49;-16261.94;;;-139.71;85.34
3598;BME280;1813;52.016;8.714;2022-12-07T07:36:23;-16261.94;;;-139.71;85.34
3598;BME280;1813;52.016;8.714;2022-12-07T07:38:56;-16261.94;;;-139.71;85.23
3598;BME280;1813;52.016;8.714;2022-12-07T07:41:30;-16261.94;;;-139.71;85.24
3598;BME280;1813;52.016;8.714;2022-12-07T07:44:09;-16261.94;;;-139.71;85.18
3598;BME280;1813;52.016;8.714;2022-12-07T07:46:43;-16261.94;;;-139.71;84.98
3598;BME280;1813;52.016;8.714;2022-12-07T07:49:17;-16261.94;;;-139.71;84.89
3598;BME280;1813;52.016;8.714;2022-12-07T07:51:50;-16261.94;;;-139.71;84.93
3598;BME280;1813;52.016;8.714;2022-12-07T07:54:24;-16261.94;;;-139.71;84.75
3598;BME280;1813;52.016;8.714;2022-12-07T07:56:58;-16261.94;;;-139.71;84.59
3598;BME280;1813;52.016;8.714;2022-12-07T07:59:34;-16261.94;;;-139.71;84.57
3598;BME280;1813;52.016;8.714;2022-12-07T08:02:09;-16261.94;;;-139.71;84.77
3598;BME280;1813;52.016;8.714;2022-12-07T08:04:46;-16261.94;;;-139.71;85.00
3598;BME280;1813;52.016;8.714;2022-12-07T08:07:20;-16261.94;;;-139.71;85.10
3598;BME280;1813;52.016;8.714;2022-12-07T08:09:54;-16261.94;;;-139.71;85.13
3598;BME280;1813;52.016;8.714;2022-12-07T08:12:28;-16261.94;;;-139.71;85.27
3598;BME280;1813;52.016;8.714;2022-12-07T08:15:06;-16261.94;;;-139.71;85.22
3598;BME280;1813;52.016;8.714;2022-12-07T08:17:39;-16261.94;;;-139.71;85.32
3598;BME280;1813;52.016;8.714;2022-12-07T08:20:13;-16261.94;;;-139.71;85.44
3598;BME280;1813;52.016;8.714;2022-12-07T08:22:47;-16261.94;;;-139.71;85.33
3598;BME280;1813;52.016;8.714;2022-12-07T08:25:21;-16261.94;;;-139.71;85.29
3598;BME280;1813;52.016;8.714;2022-12-07T08:27:55;-16261.94;;;-139.71;85.09
3598;BME280;1813;52.016;8.714;2022-12-07T08:30:32;-16261.94;;;-139.71;85.11
3598;BME280;1813;52.016;8.714;2022-12-07T08:33:06;-16261.94;;;-139.71;85.09
3598;BME280;1813;52.016;8.714;2022-12-07T08:35:40;-16261.94;;;-139.71;85.32
3598;BME280;1813;52.016;8.714;2022-12-07T08:38:13;-16261.94;;;-139.71;85.32
3598;BME280;1813;52.016;8.714;2022-12-07T08:40:53;-16261.94;;;-139.71;85.36
3598;BME280;1813;52.016;8.714;2022-12-07T08:43:27;-16261.94;;;-139.71;85.59
3598;BME280;1813;52.016;8.714;2022-12-07T08:46:09;-16261.94;;;-139.71;85.84
3598;BME280;1813;52.016;8.714;2022-12-07T08:48:47;-16261.94;;;-139.71;86.04
3598;BME280;1813;52.016;8.714;2022-12-07T08:51:22;-16261.94;;;-139.71;86.32
3598;BME280;1813;52.016;8.714;2022-12-07T08:53:58;-16261.94;;;-139.71;86.44
3598;BME280;1813;52.016;8.714;2022-12-07T08:56:34;-16261.94;;;-139.71;86.80
3598;BME280;1813;52.016;8.714;2022-12-07T08:59:09;-16261.94;;;-139.71;86.14
3598;BME280;1813;52.016;8.714;2022-12-07T09:01:46;-16261.94;;;-139.71;85.38
3598;BME280;1813;52.016;8.714;2022-12-07T09:04:20;-16261.94;;;-139.71;84.83
3598;BME280;1813;52.016;8.714;2022-12-07T09:06:55;-16261.94;;;-139.71;85.02
3598;BME280;1813;52.016;8.714;2022-12-07T09:09:29;-16261.94;;;-139.71;85.02
3598;BME280;1813;52.016;8.714;2022-12-07T09:12:03;-16261.94;;;-139.71;84.37
3598;BME280;1813;52.016;8.714;2022-12-07T09:14:37;-16261.94;;;-139.71;85.06
3598;BME280;1813;52.016;8.714;2022-12-07T09:17:13;-16261.94;;;-139.71;85.53
3598;BME280;1813;52.016;8.714;2022-12-07T09:19:47;-16261.94;;;-139.71;85.39
3598;BME280;1813;52.016;8.714;2022-12-07T09:22:21;-16261.94;;;-139.71;84.70
3598;BME280;1813;52.016;8.714;2022-12-07T09:24:55;-16261.94;;;-139.71;83.78
3598;BME280;1813;52.016;8.714;2022-12-07T09:27:28;-16261.94;;;-139.71;82.37
3598;BME280;1813;52.016;8.714;2022-12-07T09:30:03;-16261.94;;;-139.71;80.39
3598;BME280;1813;52.016;8.714;2022-12-07T09:32:39;-16261.94;;;-139.71;78.76
3598;BME280;1813;52.016;8.714;2022-12-07T09:35:13;-16261.94;;;-139.71;78.82
3598;BME280;1813;52.016;8.714;2022-12-07T09:37:47;-16261.94;;;-139.71;79.03
3598;BME280;1813;52.016;8.714;2022-12-07T09:40:22;-16261.94;;;-139.71;78.65
3598;BME280;1813;52.016;8.714;2022-12-07T09:42:56;-16261.94;;;-139.71;77.35
3598;BME280;1813;52.016;8.714;2022-12-07T09:45:33;-16261.94;;;-139.71;76.47
3598;BME280;1813;52.016;8.714;2022-12-07T09:48:16;-16261.94;;;-139.71;76.37
3598;BME280;1813;52.016;8.714;2022-12-07T09:50:52;-16261.94;;;-139.71;76.62
3598;BME280;1813;52.016;8.714;2022-12-07T09:53:33;-16261.94;;;-139.71;77.02
3598;BME280;1813;52.016;8.714;2022-12-07T09:56:09;-16261.94;;;-139.71;77.10
3598;BME280;1813;52.016;8.714;2022-12-07T09:58:45;-16261.94;;;-139.71;77.49
3598;BME280;1813;52.016;8.714;2022-12-07T10:01:21;-16261.94;;;-139.71;77.89
3598;BME280;1813;52.016;8.714;2022-12-07T10:04:02;-16261.94;;;-139.71;78.16
3598;BME280;1813;52.016;8.714;2022-12-07T10:06:40;-16261.94;;;-139.71;78.59
3598;BME280;1813;52.016;8.714;2022-12-07T10:09:16;-16261.94;;;-139.71;78.85
3598;BME280;1813;52.016;8.714;2022-12-07T10:12:04;-16261.94;;;-139.71;78.98
3598;BME280;1813;52.016;8.714;2022-12-07T10:14:52;-16261.94;;;-139.71;79.40
3598;BME280;1813;52.016;8.714;2022-12-07T10:17:36;-16261.94;;;-139.71;79.53
3598;BME280;1813;52.016;8.714;2022-12-07T10:20:20;-16261.94;;;-139.71;79.62
3598;BME280;1813;52.016;8.714;2022-12-07T10:23:00;-16261.94;;;-139.71;80.05
3598;BME280;1813;52.016;8.714;2022-12-07T10:25:35;-16261.94;;;-139.71;80.43
3598;BME280;1813;52.016;8.714;2022-12-07T10:28:13;-16261.94;;;-139.71;80.54
3598;BME280;1813;52.016;8.714;2022-12-07T10:30:59;-16261.94;;;-139.71;80.77
3598;BME280;1813;52.016;8.714;2022-12-07T10:33:35;-16261.94;;;-139.71;80.90
3598;BME280;1813;52.016;8.714;2022-12-07T10:36:20;-16261.94;;;-139.71;81.04
3598;BME280;1813;52.016;8.714;2022-12-07T10:39:00;-16261.94;;;-139.71;81.22
3598;BME280;1813;52.016;8.714;2022-12-07T10:41:34;-16261.94;;;-139.71;81.64
3598;BME280;1813;52.016;8.714;2022-12-07T10:44:21;-16261.94;;;-139.71;81.61
3598;BME280;1813;52.016;8.714;2022-12-07T10:47:03;-16261.94;;;-139.71;81.53
3598;BME280;1813;52.016;8.714;2022-12-07T10:49:53;-16261.94;;;-139.71;81.15
3598;BME280;1813;52.016;8.714;2022-12-07T10:52:48;-16261.94;;;-139.71;81.20
3598;BME280;1813;52.016;8.714;2022-12-07T10:55:28;-16261.94;;;-139.71;81.14
3598;BME280;1813;52.016;8.714;2022-12-07T10:58:20;-16261.94;;;-139.71;81.02
3598;BME280;1813;52.016;8.714;2022-12-07T11:01:05;-16261.94;;;-139.71;80.85
3598;BME280;1813;52.016;8.714;2022-12-07T11:03:56;-16261.94;;;-139.71;80.37
3598;BME280;1813;52.016;8.714;2022-12-07T11:06:40;-16261.94;;;-139.71;80.46
3598;BME280;1813;52.016;8.714;2022-12-07T11:09:40;-16261.94;;;-139.71;80.22
3598;BME280;1813;52.016;8.714;2022-12-07T11:12:29;-16261.94;;;-139.71;80.10
3598;BME280;1813;52.016;8.714;2022-12-07T11:15:14;-16261.94;;;-139.71;80.02
3598;BME280;1813;52.016;8.714;2022-12-07T11:17:55;-16261.94;;;-139.71;80.07
3598;BME280;1813;52.016;8.714;2022-12-07T11:20:43;-16261.94;;;-139.71;80.23
3598;BME280;1813;52.016;8.714;2022-12-07T11:23:34;-16261.94;;;-139.71;80.30
3598;BME280;1813;52.016;8.714;2022-12-07T11:26:25;-16261.94;;;-139.71;80.15
3598;BME280;1813;52.016;8.714;2022-12-07T11:29:15;-16261.94;;;-139.71;79.98
3598;BME280;1813;52.016;8.714;2022-12-07T11:31:57;-16261.94;;;-139.71;79.89
3598;BME280;1813;52.016;8.714;2022-12-07T11:34:39;-16261.94;;;-139.71;79.76
3598;BME280;1813;52.016;8.714;2022-12-07T11:37:21;-16261.94;;;-139.71;79.79
3598;BME280;1813;52.016;8.714;2022-12-07T11:40:01;-16261.94;;;-139.71;79.77
3598;BME280;1813;52.016;8.714;2022-12-07T11:42:41;-16261.94;;;-139.71;79.80
3598;BME280;1813;52.016;8.714;2022-12-07T11:45:20;-16261.94;;;-139.71;79.47
3598;BME280;1813;52.016;8.714;2022-12-07T11:48:00;-16261.94;;;-139.71;79.37
3598;BME280;1813;52.016;8.714;2022-12-07T11:50:36;-16261.94;;;-139.71;79.26
3598;BME280;1813;52.016;8.714;2022-12-07T11:53:18;-16261.94;;;-139.71;79.15
3598;BME280;1813;52.016;8.714;2022-12-07T11:55:56;-16261.94;;;-139.71;78.95
3598;BME280;1813;52.016;8.714;2022-12-07T11:58:46;-16261.94;;;-139.71;78.54
3598;BME280;1813;52.016;8.714;2022-12-07T12:01:31;-16261.94;;;-139.71;78.40
3598;BME280;1813;52.016;8.714;2022-12-07T12:04:19;-16261.94;;;-139.71;78.02
3598;BME280;1813;52.016;8.714;2022-12-07T12:06:57;-16261.94;;;-139.71;77.61
3598;BME280;1813;52.016;8.714;2022-12-07T12:09:33;-16261.94;;;-139.71;77.45
3598;BME280;1813;52.016;8.714;2022-12-07T12:15:35;-16261.94;;;-139.71;77.56
3598;BME280;1813;52.016;8.714;2022-12-07T12:18:24;-16261.94;;;-139.71;77.96
3598;BME280;1813;52.016;8.714;2022-12-07T12:21:03;-16261.94;;;-139.71;78.16
3598;BME280;1813;52.016;8.714;2022-12-07T12:23:41;-16261.94;;;-139.71;77.63
3598;BME280;1813;52.016;8.714;2022-12-07T12:26:18;-16261.94;;;-139.71;78.04
3598;BME280;1813;52.016;8.714;2022-12-07T12:28:56;-16261.94;;;-139.71;77.79
3598;BME280;1813;52.016;8.714;2022-12-07T12:31:37;-16261.94;;;-139.71;76.70
3598;BME280;1813;52.016;8.714;2022-12-07T12:34:32;-16261.94;;;-139.71;74.86
3598;BME280;1813;52.016;8.714;2022-12-07T12:37:43;-16261.94;;;-139.71;73.34
3598;BME280;1813;52.016;8.714;2022-12-07T12:40:42;-16261.94;;;-139.71;72.86
3598;BME280;1813;52.016;8.714;2022-12-07T12:43:44;-16261.94;;;-139.71;72.13
3598;BME280;1813;52.016;8.714;2022-12-07T12:46:50;-16261.94;;;-139.71;71.34
3598;BME280;1813;52.016;8.714;2022-12-07T12:49:42;-16261.94;;;-139.71;70.23
3598;BME280;1813;52.016;8.714;2022-12-07T12:53:01;-16261.94;;;-139.71;69.94
3598;BME280;1813;52.016;8.714;2022-12-07T12:55:58;-16261.94;;;-139.71;69.74
3598;BME280;1813;52.016;8.714;2022-12-07T12:58:43;-16261.94;;;-139.71;68.75
3598;BME280;1813;52.016;8.714;2022-12-07T13:01:39;-16261.94;;;-139.71;68.63
3598;BME280;1813;52.016;8.714;2022-12-07T13:10:35;-16261.94;;;-139.71;68.52
3598;BME280;1813;52.016;8.714;2022-12-07T13:13:28;-16261.94;;;-139.71;68.61
3598;BME280;1813;52.016;8.714;2022-12-07T13:25:38;-16261.94;;;-139.71;68.90
3598;BME280;1813;52.016;8.714;2022-12-07T13:28:16;-16261.94;;;-139.71;69.08
3598;BME280;1813;52.016;8.714;2022-12-07T13:31:03;-16261.94;;;-139.71;69.32
3598;BME280;1813;52.016;8.714;2022-12-07T13:33:43;-16261.94;;;-139.71;69.36
3598;BME280;1813;52.016;8.714;2022-12-07T13:36:21;-16261.94;;;-139.71;69.46
3598;BME280;1813;52.016;8.714;2022-12-07T13:38:57;-16261.94;;;-139.71;69.45
3598;BME280;1813;52.016;8.714;2022-12-07T13:41:33;-16261.94;;;-139.71;69.52
3598;BME280;1813;52.016;8.714;2022-12-07T13:44:11;-16261.94;;;-139.71;69.85
3598;BME280;1813;52.016;8.714;2022-12-07T13:46:53;-16261.94;;;-139.71;70.34
3598;BME280;1813;52.016;8.714;2022-12-07T13:49:30;-16261.94;;;-139.71;70.84
3598;BME280;1813;52.016;8.714;2022-12-07T13:52:14;-16261.94;;;-139.71;71.05
3598;BME280;1813;52.016;8.714;2022-12-07T13:54:54;-16261.94;;;-139.71;71.67
3598;BME280;1813;52.016;8.714;2022-12-07T13:57:33;-16261.94;;;-139.71;71.20
3598;BME280;1813;52.016;8.714;2022-12-07T14:00:16;-16261.94;;;-139.71;70.98
3598;BME280;1813;52.016;8.714;2022-12-07T14:02:56;-16261.94;;;-139.71;70.60
3598;BME280;1813;52.016;8.714;2022-12-07T14:05:31;-16261.94;;;-139.71;70.18
3598;BME280;1813;52.016;8.714;2022-12-07T14:08:21;-16261.94;;;-139.71;69.81
3598;BME280;1813;52.016;8.714;2022-12-07T14:10:56;-16261.94;;;-139.71;69.67
3598;BME280;1813;52.016;8.714;2022-12-07T14:13:35;-16261.94;;;-139.71;69.75